sensor_id;sensor_type;location;lat;lon;timestamp;pressure;altitude;pressure_sealevel;temperature;humidity
12358;BME280;6243;51.244;6.774;2023-09-08T00:01:35;115150.97;;;-141.28;35.98
12358;BME280;6243;51.244;6.774;2023-09-08T00:04:00;115150.97;;;-141.28;36.17
12358;BME280;6243;51.244;6.774;2023-09-08T00:06:27;115150.97;;;-141.28;36.25
12358;BME280;6243;51.244;6.774;2023-09-08T00:08:53;115150.97;;;-141.28;36.15
12358;BME280;6243;51.244;6.774;2023-09-08T00:11:18;115150.97;;;-141.28;36.19
12358;BME280;6243;51.244;6.774;2023-09-08T00:13:44;115150.97;;;-141.28;36.26
12358;BME280;6243;51.244;6.774;2023-09-08T00:16:09;115150.97;;;-141.28;36.30
12358;BME280;6243;51.244;6.774;2023-09-08T00:18:35;115150.97;;;-141.28;36.49
12358;BME280;6243;51.244;6.774;2023-09-08T00:21:00;115150.97;;;-141.28;36.48
12358;BME280;6243;51.244;6.774;2023-09-08T00:23:27;115150.97;;;-141.28;36.50
12358;BME280;6243;51.244;6.774;2023-09-08T00:25:53;115150.97;;;-141.28;36.57
12358;BME280;6243;51.244;6.774;2023-09-08T00:28:18;115150.97;;;-141.28;36.63
12358;BME280;6243;51.244;6.774;2023-09-08T00:30:44;115150.97;;;-141.28;36.58
12358;BME280;6243;51.244;6.774;2023-09-08T00:33:09;115150.97;;;-141.28;36.73
12358;BME280;6243;51.244;6.774;2023-09-08T00:35:35;115150.97;;;-141.28;36.76
12358;BME280;6243;51.244;6.774;2023-09-08T00:38:00;115150.97;;;-141.28;36.63
12358;BME280;6243;51.244;6.774;2023-09-08T00:40:28;115150.97;;;-141.28;36.75
12358;BME280;6243;51.244;6.774;2023-09-08T00:42:53;115150.97;;;-141.28;36.66
12358;BME280;6243;51.244;6.774;2023-09-08T00:45:19;115150.97;;;-141.28;36.55
12358;BME280;6243;51.244;6.774;2023-09-08T00:47:44;115150.97;;;-141.28;36.66
12358;BME280;6243;51.244;6.774;2023-09-08T00:50:10;115150.97;;;-141.28;36.56
12358;BME280;6243;51.244;6.774;2023-09-08T00:52:36;115150.97;;;-141.28;36.76
12358;BME280;6243;51.244;6.774;2023-09-08T00:55:02;115150.97;;;-141.28;36.71
12358;BME280;6243;51.244;6.774;2023-09-08T00:57:30;115150.97;;;-141.28;37.22
12358;BME280;6243;51.244;6.774;2023-09-08T00:59:56;115150.97;;;-141.28;37.60
12358;BME280;6243;51.244;6.774;2023-09-08T01:02:21;115150.97;;;-141.28;37.17
12358;BME280;6243;51.244;6.774;2023-09-08T01:04:47;115150.97;;;-141.28;37.16
12358;BME280;6243;51.244;6.774;2023-09-08T01:07:14;115150.97;;;-141.28;37.15
12358;BME280;6243;51.244;6.774;2023-09-08T01:09:40;115150.97;;;-141.28;37.59
12358;BME280;6243;51.244;6.774;2023-09-08T01:12:07;115150.97;;;-141.28;37.61
12358;BME280;6243;51.244;6.774;2023-09-08T01:14:34;115150.97;;;-141.28;37.44
12358;BME280;6243;51.244;6.774;2023-09-08T01:16:59;115150.97;;;-141.28;37.87
12358;BME280;6243;51.244;6.774;2023-09-08T01:19:25;115150.97;;;-141.28;37.67
12358;BME280;6243;51.244;6.774;2023-09-08T01:22:07;115150.97;;;-141.28;37.57
12358;BME280;6243;51.244;6.774;2023-09-08T01:25:19;115150.97;;;-141.28;37.86
12358;BME280;6243;51.244;6.774;2023-09-08T01:27:48;115150.97;;;-141.28;37.57
12358;BME280;6243;51.244;6.774;2023-09-08T01:30:16;115150.97;;;-141.28;37.70
12358;BME280;6243;51.244;6.774;2023-09-08T01:32:42;115150.97;;;-141.28;38.03
12358;BME280;6243;51.244;6.774;2023-09-08T01:35:09;115150.97;;;-141.28;38.52
12358;BME280;6243;51.244;6.774;2023-09-08T01:37:34;115150.97;;;-141.28;38.03
12358;BME280;6243;51.244;6.774;2023-09-08T01:40:00;115150.97;;;-141.28;38.00
12358;BME280;6243;51.244;6.774;2023-09-08T01:42:27;115150.97;;;-141.28;38.50
12358;BME280;6243;51.244;6.774;2023-09-08T01:44:52;115150.97;;;-141.28;38.13
12358;BME280;6243;51.244;6.774;2023-09-08T01:47:18;115150.97;;;-141.28;38.24
12358;BME280;6243;51.244;6.774;2023-09-08T01:49:43;115150.97;;;-141.28;38.25
12358;BME280;6243;51.244;6.774;2023-09-08T01:52:09;115150.97;;;-141.28;38.13
12358;BME280;6243;51.244;6.774;2023-09-08T01:54:34;115150.97;;;-141.28;38.39
12358;BME280;6243;51.244;6.774;2023-09-08T01:57:00;115150.97;;;-141.28;38.31
12358;BME280;6243;51.244;6.774;2023-09-08T01:59:27;115150.97;;;-141.28;38.29
12358;BME280;6243;51.244;6.774;2023-09-08T02:01:52;115150.97;;;-141.28;37.84
12358;BME280;6243;51.244;6.774;2023-09-08T02:04:18;115150.97;;;-141.28;38.32
12358;BME280;6243;51.244;6.774;2023-09-08T02:06:43;115150.97;;;-141.28;38.61
12358;BME280;6243;51.244;6.774;2023-09-08T02:09:13;115150.97;;;-141.28;38.43
12358;BME280;6243;51.244;6.774;2023-09-08T02:11:39;115150.97;;;-141.28;38.41
12358;BME280;6243;51.244;6.774;2023-09-08T02:14:04;115150.97;;;-141.28;38.29
12358;BME280;6243;51.244;6.774;2023-09-08T02:16:31;115150.97;;;-141.28;38.28
12358;BME280;6243;51.244;6.774;2023-09-08T02:18:56;115150.97;;;-141.28;38.38
12358;BME280;6243;51.244;6.774;2023-09-08T02:21:22;115150.97;;;-141.28;38.42
12358;BME280;6243;51.244;6.774;2023-09-08T02:23:47;115150.97;;;-141.28;38.38
12358;BME280;6243;51.244;6.774;2023-09-08T02:26:13;115150.97;;;-141.28;38.64
12358;BME280;6243;51.244;6.774;2023-09-08T02:28:38;115150.97;;;-141.28;38.73
12358;BME280;6243;51.244;6.774;2023-09-08T02:31:04;115150.97;;;-141.28;39.63
12358;BME280;6243;51.244;6.774;2023-09-08T02:33:31;115150.97;;;-141.28;39.16
12358;BME280;6243;51.244;6.774;2023-09-08T02:36:01;115150.97;;;-141.28;39.73
12358;BME280;6243;51.244;6.774;2023-09-08T02:38:27;115150.97;;;-141.28;39.95
12358;BME280;6243;51.244;6.774;2023-09-08T02:40:52;115150.97;;;-141.28;39.80
12358;BME280;6243;51.244;6.774;2023-09-08T02:43:18;115150.97;;;-141.28;40.51
12358;BME280;6243;51.244;6.774;2023-09-08T02:45:43;115150.97;;;-141.28;40.16
12358;BME280;6243;51.244;6.774;2023-09-08T02:48:11;115150.97;;;-141.28;40.59
12358;BME280;6243;51.244;6.774;2023-09-08T02:50:38;115150.97;;;-141.28;39.70
12358;BME280;6243;51.244;6.774;2023-09-08T02:53:04;115150.97;;;-141.28;39.63
12358;BME280;6243;51.244;6.774;2023-09-08T02:55:30;115150.97;;;-141.28;39.22
12358;BME280;6243;51.244;6.774;2023-09-08T02:57:56;115150.97;;;-141.28;39.19
12358;BME280;6243;51.244;6.774;2023-09-08T03:00:21;115150.97;;;-141.28;39.37
12358;BME280;6243;51.244;6.774;2023-09-08T03:02:47;115150.97;;;-141.28;39.80
12358;BME280;6243;51.244;6.774;2023-09-08T03:05:12;115150.97;;;-141.28;39.80
12358;BME280;6243;51.244;6.774;2023-09-08T03:07:39;115150.97;;;-141.28;39.63
12358;BME280;6243;51.244;6.774;2023-09-08T03:10:05;115150.97;;;-141.28;39.14
12358;BME280;6243;51.244;6.774;2023-09-08T03:12:31;115150.97;;;-141.28;40.16
12358;BME280;6243;51.244;6.774;2023-09-08T03:15:01;115150.97;;;-141.28;39.74
12358;BME280;6243;51.244;6.774;2023-09-08T03:17:27;115150.97;;;-141.28;39.72
12358;BME280;6243;51.244;6.774;2023-09-08T03:19:52;115150.97;;;-141.28;39.40
12358;BME280;6243;51.244;6.774;2023-09-08T03:22:17;115150.97;;;-141.28;39.48
12358;BME280;6243;51.244;6.774;2023-09-08T03:24:44;115150.97;;;-141.28;39.52
12358;BME280;6243;51.244;6.774;2023-09-08T03:27:10;115150.97;;;-141.28;40.03
12358;BME280;6243;51.244;6.774;2023-09-08T03:29:35;115150.97;;;-141.28;40.03
12358;BME280;6243;51.244;6.774;2023-09-08T03:32:01;115150.97;;;-141.28;39.68
12358;BME280;6243;51.244;6.774;2023-09-08T03:34:26;115150.97;;;-141.28;39.99
12358;BME280;6243;51.244;6.774;2023-09-08T03:36:53;115150.97;;;-141.28;40.08
12358;BME280;6243;51.244;6.774;2023-09-08T03:39:18;115150.97;;;-141.28;40.58
12358;BME280;6243;51.244;6.774;2023-09-08T03:41:45;115150.97;;;-141.28;40.61
12358;BME280;6243;51.244;6.774;2023-09-08T03:44:11;115150.97;;;-141.28;40.85
12358;BME280;6243;51.244;6.774;2023-09-08T03:46:37;115150.97;;;-141.28;40.13
12358;BME280;6243;51.244;6.774;2023-09-08T03:49:02;115150.97;;;-141.28;41.02
12358;BME280;6243;51.244;6.774;2023-09-08T03:51:28;115150.97;;;-141.28;40.67
12358;BME280;6243;51.244;6.774;2023-09-08T03:53:53;115150.97;;;-141.28;40.26
12358;BME280;6243;51.244;6.774;2023-09-08T03:56:19;115150.97;;;-141.28;40.30
12358;BME280;6243;51.244;6.774;2023-09-08T03:58:46;115150.97;;;-141.28;40.79
12358;BME280;6243;51.244;6.774;2023-09-08T04:01:11;115150.97;;;-141.28;40.13
12358;BME280;6243;51.244;6.774;2023-09-08T04:03:37;115150.97;;;-141.28;40.28
12358;BME280;6243;51.244;6.774;2023-09-08T04:06:02;115150.97;;;-141.28;40.15
12358;BME280;6243;51.244;6.774;2023-09-08T04:08:28;115150.97;;;-141.28;40.12
12358;BME280;6243;51.244;6.774;2023-09-08T04:10:53;115150.97;;;-141.28;40.22
12358;BME280;6243;51.244;6.774;2023-09-08T04:13:19;115150.97;;;-141.28;41.19
12358;BME280;6243;51.244;6.774;2023-09-08T04:15:46;115150.97;;;-141.28;40.57
12358;BME280;6243;51.244;6.774;2023-09-08T04:18:11;115150.97;;;-141.28;41.15
12358;BME280;6243;51.244;6.774;2023-09-08T04:20:37;115150.97;;;-141.28;40.68
12358;BME280;6243;51.244;6.774;2023-09-08T04:23:03;115150.97;;;-141.28;40.56
12358;BME280;6243;51.244;6.774;2023-09-08T04:25:28;115150.97;;;-141.28;40.27
12358;BME280;6243;51.244;6.774;2023-09-08T04:27:54;115150.97;;;-141.28;40.43
12358;BME280;6243;51.244;6.774;2023-09-08T04:30:19;115150.97;;;-141.28;40.48
12358;BME280;6243;51.244;6.774;2023-09-08T04:32:46;115150.97;;;-141.28;40.58
12358;BME280;6243;51.244;6.774;2023-09-08T04:35:12;115150.97;;;-141.28;40.66
12358;BME280;6243;51.244;6.774;2023-09-08T04:37:37;115150.97;;;-141.28;40.43
12358;BME280;6243;51.244;6.774;2023-09-08T04:40:04;115150.97;;;-141.28;40.28
12358;BME280;6243;51.244;6.774;2023-09-08T04:42:29;115150.97;;;-141.28;40.15
12358;BME280;6243;51.244;6.774;2023-09-08T04:44:55;115150.97;;;-141.28;40.10
12358;BME280;6243;51.244;6.774;2023-09-08T04:47:20;115150.97;;;-141.28;39.88
12358;BME280;6243;51.244;6.774;2023-09-08T04:49:47;115150.97;;;-141.28;40.20
12358;BME280;6243;51.244;6.774;2023-09-08T04:52:13;115150.97;;;-141.28;40.25
12358;BME280;6243;51.244;6.774;2023-09-08T04:54:38;115150.97;;;-141.28;40.76
12358;BME280;6243;51.244;6.774;2023-09-08T04:57:04;115150.97;;;-141.28;40.69
12358;BME280;6243;51.244;6.774;2023-09-08T04:59:29;115150.97;;;-141.28;40.42
12358;BME280;6243;51.244;6.774;2023-09-08T05:01:55;115150.97;;;-141.28;40.75
12358;BME280;6243;51.244;6.774;2023-09-08T05:04:21;115150.97;;;-141.28;40.75
12358;BME280;6243;51.244;6.774;2023-09-08T05:06:48;115150.97;;;-141.28;40.32
12358;BME280;6243;51.244;6.774;2023-09-08T05:09:13;115150.97;;;-141.28;41.08
12358;BME280;6243;51.244;6.774;2023-09-08T05:11:39;115150.97;;;-141.28;40.49
12358;BME280;6243;51.244;6.774;2023-09-08T05:14:04;115150.97;;;-141.28;40.41
12358;BME280;6243;51.244;6.774;2023-09-08T05:16:30;115150.97;;;-141.28;40.78
12358;BME280;6243;51.244;6.774;2023-09-08T05:18:55;115150.97;;;-141.28;41.26
12358;BME280;6243;51.244;6.774;2023-09-08T05:21:20;115150.97;;;-141.28;40.94
12358;BME280;6243;51.244;6.774;2023-09-08T05:23:47;115150.97;;;-141.28;41.19
12358;BME280;6243;51.244;6.774;2023-09-08T05:26:13;115150.97;;;-141.28;41.25
12358;BME280;6243;51.244;6.774;2023-09-08T05:28:38;115150.97;;;-141.28;41.37
12358;BME280;6243;51.244;6.774;2023-09-08T05:31:04;115150.97;;;-141.28;41.26
12358;BME280;6243;51.244;6.774;2023-09-08T05:33:29;115150.97;;;-141.28;41.03
12358;BME280;6243;51.244;6.774;2023-09-08T05:35:55;115150.97;;;-141.28;40.58
12358;BME280;6243;51.244;6.774;2023-09-08T05:38:20;115150.97;;;-141.28;40.45
12358;BME280;6243;51.244;6.774;2023-09-08T05:40:47;115150.97;;;-141.28;40.74
12358;BME280;6243;51.244;6.774;2023-09-08T05:43:13;115150.97;;;-141.28;40.42
12358;BME280;6243;51.244;6.774;2023-09-08T05:45:38;115150.97;;;-141.28;40.36
12358;BME280;6243;51.244;6.774;2023-09-08T05:48:04;115150.97;;;-141.28;40.79
12358;BME280;6243;51.244;6.774;2023-09-08T05:50:30;115150.97;;;-141.28;40.26
12358;BME280;6243;51.244;6.774;2023-09-08T05:52:55;115150.97;;;-141.28;40.56
12358;BME280;6243;51.244;6.774;2023-09-08T05:55:21;115150.97;;;-141.28;40.85
12358;BME280;6243;51.244;6.774;2023-09-08T05:57:48;115150.97;;;-141.28;40.57
12358;BME280;6243;51.244;6.774;2023-09-08T06:00:14;115150.97;;;-141.28;40.18
12358;BME280;6243;51.244;6.774;2023-09-08T06:02:39;115150.97;;;-141.28;40.71
12358;BME280;6243;51.244;6.774;2023-09-08T06:05:05;115150.97;;;-141.28;40.53
12358;BME280;6243;51.244;6.774;2023-09-08T06:07:31;115150.97;;;-141.28;40.84
12358;BME280;6243;51.244;6.774;2023-09-08T06:09:56;115150.97;;;-141.28;40.22
12358;BME280;6243;51.244;6.774;2023-09-08T06:12:22;115150.97;;;-141.28;40.13
12358;BME280;6243;51.244;6.774;2023-09-08T06:14:49;115150.97;;;-141.28;40.32
12358;BME280;6243;51.244;6.774;2023-09-08T06:17:14;115150.97;;;-141.28;39.99
12358;BME280;6243;51.244;6.774;2023-09-08T06:19:40;115150.97;;;-141.28;40.00
12358;BME280;6243;51.244;6.774;2023-09-08T06:22:05;115150.97;;;-141.28;40.04
12358;BME280;6243;51.244;6.774;2023-09-08T06:24:31;115150.97;;;-141.28;39.95
12358;BME280;6243;51.244;6.774;2023-09-08T06:26:56;115150.97;;;-141.28;39.67
12358;BME280;6243;51.244;6.774;2023-09-08T06:29:22;115150.97;;;-141.28;40.13
12358;BME280;6243;51.244;6.774;2023-09-08T06:31:49;115150.97;;;-141.28;39.89
12358;BME280;6243;51.244;6.774;2023-09-08T06:34:14;115150.97;;;-141.28;39.55
12358;BME280;6243;51.244;6.774;2023-09-08T06:36:40;115150.97;;;-141.28;39.63
12358;BME280;6243;51.244;6.774;2023-09-08T06:39:05;115150.97;;;-141.28;39.81
12358;BME280;6243;51.244;6.774;2023-09-08T06:41:31;115150.97;;;-141.28;39.29
12358;BME280;6243;51.244;6.774;2023-09-08T06:43:56;115150.97;;;-141.28;39.49
12358;BME280;6243;51.244;6.774;2023-09-08T06:46:22;115150.97;;;-141.28;39.04
12358;BME280;6243;51.244;6.774;2023-09-08T06:48:49;115150.97;;;-141.28;39.22
12358;BME280;6243;51.244;6.774;2023-09-08T06:51:14;115150.97;;;-141.28;38.84
12358;BME280;6243;51.244;6.774;2023-09-08T06:53:42;115150.97;;;-141.28;38.69
12358;BME280;6243;51.244;6.774;2023-09-08T06:56:08;115150.97;;;-141.28;38.63
12358;BME280;6243;51.244;6.774;2023-09-08T06:58:33;115150.97;;;-141.28;39.04
12358;BME280;6243;51.244;6.774;2023-09-08T07:00:59;115150.97;;;-141.28;38.54
12358;BME280;6243;51.244;6.774;2023-09-08T07:03:25;115150.97;;;-141.28;38.47
12358;BME280;6243;51.244;6.774;2023-09-08T07:05:52;115150.97;;;-141.28;38.05
12358;BME280;6243;51.244;6.774;2023-09-08T07:08:17;115150.97;;;-141.28;38.18
12358;BME280;6243;51.244;6.774;2023-09-08T07:10:43;115150.97;;;-141.28;37.77
12358;BME280;6243;51.244;6.774;2023-09-08T07:13:09;115150.97;;;-141.28;38.14
12358;BME280;6243;51.244;6.774;2023-09-08T07:15:35;115150.97;;;-141.28;37.75
12358;BME280;6243;51.244;6.774;2023-09-08T07:18:00;115150.97;;;-141.28;37.86
12358;BME280;6243;51.244;6.774;2023-09-08T07:20:26;115150.97;;;-141.28;37.48
12358;BME280;6243;51.244;6.774;2023-09-08T07:22:53;115150.97;;;-141.28;37.40
12358;BME280;6243;51.244;6.774;2023-09-08T07:25:19;115150.97;;;-141.28;37.47
12358;BME280;6243;51.244;6.774;2023-09-08T07:27:44;115150.97;;;-141.28;38.05
12358;BME280;6243;51.244;6.774;2023-09-08T07:30:11;115150.97;;;-141.28;37.29
12358;BME280;6243;51.244;6.774;2023-09-08T07:32:37;115150.97;;;-141.28;36.82
12358;BME280;6243;51.244;6.774;2023-09-08T07:35:03;115150.97;;;-141.28;36.76
12358;BME280;6243;51.244;6.774;2023-09-08T07:37:29;115150.97;;;-141.28;37.05
12358;BME280;6243;51.244;6.774;2023-09-08T07:39:56;115150.97;;;-141.28;36.77
12358;BME280;6243;51.244;6.774;2023-09-08T07:42:22;115150.97;;;-141.28;36.44
12358;BME280;6243;51.244;6.774;2023-09-08T07:44:47;115150.97;;;-141.28;36.77
12358;BME280;6243;51.244;6.774;2023-09-08T07:47:13;115150.97;;;-141.28;36.38
12358;BME280;6243;51.244;6.774;2023-09-08T07:49:38;115150.97;;;-141.28;36.24
12358;BME280;6243;51.244;6.774;2023-09-08T07:52:05;115150.97;;;-141.28;36.06
12358;BME280;6243;51.244;6.774;2023-09-08T07:54:30;115150.97;;;-141.28;36.23
12358;BME280;6243;51.244;6.774;2023-09-08T07:56:57;115150.97;;;-141.28;36.93
12358;BME280;6243;51.244;6.774;2023-09-08T07:59:23;115150.97;;;-141.28;36.54
12358;BME280;6243;51.244;6.774;2023-09-08T08:01:49;115150.97;;;-141.28;36.53
12358;BME280;6243;51.244;6.774;2023-09-08T08:04:14;115150.97;;;-141.28;36.40
12358;BME280;6243;51.244;6.774;2023-09-08T08:06:40;115150.97;;;-141.28;36.15
12358;BME280;6243;51.244;6.774;2023-09-08T08:09:05;115150.97;;;-141.28;36.05
12358;BME280;6243;51.244;6.774;2023-09-08T08:11:31;115150.97;;;-141.28;36.21
12358;BME280;6243;51.244;6.774;2023-09-08T08:13:58;115150.97;;;-141.28;36.20
12358;BME280;6243;51.244;6.774;2023-09-08T08:16:24;115150.97;;;-141.28;36.12
12358;BME280;6243;51.244;6.774;2023-09-08T08:18:49;115150.97;;;-141.28;35.80
12358;BME280;6243;51.244;6.774;2023-09-08T08:21:16;115150.97;;;-141.28;35.94
12358;BME280;6243;51.244;6.774;2023-09-08T08:23:41;115150.97;;;-141.28;36.60
12358;BME280;6243;51.244;6.774;2023-09-08T08:26:07;115150.97;;;-141.28;36.26
12358;BME280;6243;51.244;6.774;2023-09-08T08:28:33;115150.97;;;-141.28;35.71
12358;BME280;6243;51.244;6.774;2023-09-08T08:31:01;115150.97;;;-141.28;35.61
12358;BME280;6243;51.244;6.774;2023-09-08T08:33:26;115150.97;;;-141.28;34.90
12358;BME280;6243;51.244;6.774;2023-09-08T08:35:52;115150.97;;;-141.28;35.34
12358;BME280;6243;51.244;6.774;2023-09-08T08:38:19;115150.97;;;-141.28;34.65
12358;BME280;6243;51.244;6.774;2023-09-08T08:40:44;115150.97;;;-141.28;34.81
12358;BME280;6243;51.244;6.774;2023-09-08T08:43:10;115150.97;;;-141.28;34.92
12358;BME280;6243;51.244;6.774;2023-09-08T08:45:37;115150.97;;;-141.28;34.12
12358;BME280;6243;51.244;6.774;2023-09-08T08:48:05;115150.97;;;-141.28;34.89
12358;BME280;6243;51.244;6.774;2023-09-08T08:50:32;115150.97;;;-141.28;34.39
12358;BME280;6243;51.244;6.774;2023-09-08T08:52:57;115150.97;;;-141.28;34.42
12358;BME280;6243;51.244;6.774;2023-09-08T08:55:24;115150.97;;;-141.28;34.34
12358;BME280;6243;51.244;6.774;2023-09-08T08:57:50;115150.97;;;-141.28;33.86
12358;BME280;6243;51.244;6.774;2023-09-08T09:00:17;115150.97;;;-141.28;33.86
12358;BME280;6243;51.244;6.774;2023-09-08T09:02:43;115150.97;;;-141.28;34.08
12358;BME280;6243;51.244;6.774;2023-09-08T09:05:11;115150.97;;;-141.28;34.01
12358;BME280;6243;51.244;6.774;2023-09-08T09:07:37;115150.97;;;-141.28;34.22
12358;BME280;6243;51.244;6.774;2023-09-08T09:10:03;115150.97;;;-141.28;33.46
12358;BME280;6243;51.244;6.774;2023-09-08T09:12:29;115150.97;;;-141.28;34.01
12358;BME280;6243;51.244;6.774;2023-09-08T09:14:58;115150.97;;;-141.28;34.30
12358;BME280;6243;51.244;6.774;2023-09-08T09:17:23;115150.97;;;-141.28;33.83
12358;BME280;6243;51.244;6.774;2023-09-08T09:19:49;115150.97;;;-141.28;33.77
12358;BME280;6243;51.244;6.774;2023-09-08T09:22:19;115150.97;;;-141.28;33.98
12358;BME280;6243;51.244;6.774;2023-09-08T09:24:45;115150.97;;;-141.28;33.45
12358;BME280;6243;51.244;6.774;2023-09-08T09:27:12;115150.97;;;-141.28;33.95
12358;BME280;6243;51.244;6.774;2023-09-08T09:29:44;115150.97;;;-141.28;33.88
12358;BME280;6243;51.244;6.774;2023-09-08T09:32:10;115150.97;;;-141.28;33.27
12358;BME280;6243;51.244;6.774;2023-09-08T09:34:47;115150.97;;;-141.28;33.15
12358;BME280;6243;51.244;6.774;2023-09-08T09:37:13;115150.97;;;-141.28;33.12
12358;BME280;6243;51.244;6.774;2023-09-08T09:39:40;115150.97;;;-141.28;33.58
12358;BME280;6243;51.244;6.774;2023-09-08T09:42:06;115150.97;;;-141.28;33.16
12358;BME280;6243;51.244;6.774;2023-09-08T09:44:32;115150.97;;;-141.28;33.33
12358;BME280;6243;51.244;6.774;2023-09-08T09:47:00;115150.97;;;-141.28;33.40
12358;BME280;6243;51.244;6.774;2023-09-08T09:49:26;115150.97;;;-141.28;33.52
12358;BME280;6243;51.244;6.774;2023-09-08T09:51:53;115150.97;;;-141.28;33.32
12358;BME280;6243;51.244;6.774;2023-09-08T09:54:19;115150.97;;;-141.28;33.58
12358;BME280;6243;51.244;6.774;2023-09-08T09:56:46;115150.97;;;-141.28;33.10
12358;BME280;6243;51.244;6.774;2023-09-08T09:59:12;115150.97;;;-141.28;33.58
12358;BME280;6243;51.244;6.774;2023-09-08T10:01:39;115150.97;;;-141.28;32.96
12358;BME280;6243;51.244;6.774;2023-09-08T10:04:06;115150.97;;;-141.28;32.61
12358;BME280;6243;51.244;6.774;2023-09-08T10:06:33;115150.97;;;-141.28;33.54
12358;BME280;6243;51.244;6.774;2023-09-08T10:08:59;115150.97;;;-141.28;33.32
12358;BME280;6243;51.244;6.774;2023-09-08T10:11:28;115150.97;;;-141.28;32.94
12358;BME280;6243;51.244;6.774;2023-09-08T10:13:58;115150.97;;;-141.28;33.83
12358;BME280;6243;51.244;6.774;2023-09-08T10:16:26;115150.97;;;-141.28;33.27
12358;BME280;6243;51.244;6.774;2023-09-08T10:18:53;115150.97;;;-141.28;33.94
12358;BME280;6243;51.244;6.774;2023-09-08T10:21:21;115150.97;;;-141.28;32.93
12358;BME280;6243;51.244;6.774;2023-09-08T10:23:53;115150.97;;;-141.28;32.53
12358;BME280;6243;51.244;6.774;2023-09-08T10:26:22;115150.97;;;-141.28;32.22
12358;BME280;6243;51.244;6.774;2023-09-08T10:28:51;115150.97;;;-141.28;32.14
12358;BME280;6243;51.244;6.774;2023-09-08T10:31:20;115150.97;;;-141.28;32.18
12358;BME280;6243;51.244;6.774;2023-09-08T10:33:46;115150.97;;;-141.28;33.09
12358;BME280;6243;51.244;6.774;2023-09-08T10:36:12;115150.97;;;-141.28;33.27
12358;BME280;6243;51.244;6.774;2023-09-08T10:38:38;115150.97;;;-141.28;32.55
12358;BME280;6243;51.244;6.774;2023-09-08T10:41:26;115150.97;;;-141.28;32.73
12358;BME280;6243;51.244;6.774;2023-09-08T10:43:55;115150.97;;;-141.28;33.09
12358;BME280;6243;51.244;6.774;2023-09-08T10:46:23;115150.97;;;-141.28;32.73
12358;BME280;6243;51.244;6.774;2023-09-08T10:48:49;115150.97;;;-141.28;32.23
12358;BME280;6243;51.244;6.774;2023-09-08T10:51:14;115150.97;;;-141.28;31.94
12358;BME280;6243;51.244;6.774;2023-09-08T10:53:40;115150.97;;;-141.28;31.48
12358;BME280;6243;51.244;6.774;2023-09-08T10:56:06;115150.97;;;-141.28;31.80
12358;BME280;6243;51.244;6.774;2023-09-08T10:58:33;115150.97;;;-141.28;31.92
12358;BME280;6243;51.244;6.774;2023-09-08T11:01:00;115150.97;;;-141.28;31.36
12358;BME280;6243;51.244;6.774;2023-09-08T11:03:39;115150.97;;;-141.28;31.69
12358;BME280;6243;51.244;6.774;2023-09-08T11:06:08;115150.97;;;-141.28;32.40
12358;BME280;6243;51.244;6.774;2023-09-08T11:08:37;115150.97;;;-141.28;31.23
12358;BME280;6243;51.244;6.774;2023-09-08T11:11:04;115150.97;;;-141.28;30.87
12358;BME280;6243;51.244;6.774;2023-09-08T11:13:30;115150.97;;;-141.28;30.49
12358;BME280;6243;51.244;6.774;2023-09-08T11:15:56;115150.97;;;-141.28;30.30
12358;BME280;6243;51.244;6.774;2023-09-08T11:18:27;115150.97;;;-141.28;30.36
12358;BME280;6243;51.244;6.774;2023-09-08T11:20:53;115150.97;;;-141.28;30.51
12358;BME280;6243;51.244;6.774;2023-09-08T11:23:18;115150.97;;;-141.28;30.29
12358;BME280;6243;51.244;6.774;2023-09-08T11:25:45;115150.97;;;-141.28;30.50
12358;BME280;6243;51.244;6.774;2023-09-08T11:28:11;115150.97;;;-141.28;30.50
12358;BME280;6243;51.244;6.774;2023-09-08T11:30:37;115150.97;;;-141.28;31.01
12358;BME280;6243;51.244;6.774;2023-09-08T11:33:02;115150.97;;;-141.28;31.63
12358;BME280;6243;51.244;6.774;2023-09-08T11:35:31;115150.97;;;-141.28;31.34
12358;BME280;6243;51.244;6.774;2023-09-08T11:38:00;115150.97;;;-141.28;30.33
12358;BME280;6243;51.244;6.774;2023-09-08T11:40:26;115150.97;;;-141.28;30.64
12358;BME280;6243;51.244;6.774;2023-09-08T11:42:53;115150.97;;;-141.28;30.87
12358;BME280;6243;51.244;6.774;2023-09-08T11:45:19;115150.97;;;-141.28;30.81
12358;BME280;6243;51.244;6.774;2023-09-08T11:47:44;115150.97;;;-141.28;30.72
12358;BME280;6243;51.244;6.774;2023-09-08T11:50:10;115150.97;;;-141.28;29.87
12358;BME280;6243;51.244;6.774;2023-09-08T11:52:37;115150.97;;;-141.28;31.30
12358;BME280;6243;51.244;6.774;2023-09-08T11:55:03;115150.97;;;-141.28;30.47
12358;BME280;6243;51.244;6.774;2023-09-08T11:57:30;115150.97;;;-141.28;30.72
12358;BME280;6243;51.244;6.774;2023-09-08T11:59:58;115150.97;;;-141.28;30.69
12358;BME280;6243;51.244;6.774;2023-09-08T12:02:25;115150.97;;;-141.28;31.05
12358;BME280;6243;51.244;6.774;2023-09-08T12:04:53;115150.97;;;-141.28;30.87
12358;BME280;6243;51.244;6.774;2023-09-08T12:07:18;115150.97;;;-141.28;31.05
12358;BME280;6243;51.244;6.774;2023-09-08T12:09:45;115150.97;;;-141.28;30.92
12358;BME280;6243;51.244;6.774;2023-09-08T12:12:11;115150.97;;;-141.28;31.11
12358;BME280;6243;51.244;6.774;2023-09-08T12:14:40;115150.97;;;-141.28;30.78
12358;BME280;6243;51.244;6.774;2023-09-08T12:17:06;115150.97;;;-141.28;30.89
12358;BME280;6243;51.244;6.774;2023-09-08T12:19:32;115150.97;;;-141.28;30.93
12358;BME280;6243;51.244;6.774;2023-09-08T12:21:59;115150.97;;;-141.28;30.79
12358;BME280;6243;51.244;6.774;2023-09-08T12:24:48;115150.97;;;-141.28;30.32
12358;BME280;6243;51.244;6.774;2023-09-08T12:27:14;115150.97;;;-141.28;30.08
12358;BME280;6243;51.244;6.774;2023-09-08T12:29:40;115150.97;;;-141.28;29.86
12358;BME280;6243;51.244;6.774;2023-09-08T12:32:06;115150.97;;;-141.28;29.77
12358;BME280;6243;51.244;6.774;2023-09-08T12:34:32;115150.97;;;-141.28;30.18
12358;BME280;6243;51.244;6.774;2023-09-08T12:36:58;115150.97;;;-141.28;30.09